createdAt,value
2018-06-12T00:00:39.748Z,17.62
2018-06-12T00:01:39.912Z,17.62
2018-06-12T00:02:39.588Z,17.66
2018-06-12T00:03:39.511Z,17.72
2018-06-12T00:04:39.425Z,17.68
2018-06-12T00:05:39.349Z,17.72
2018-06-12T00:06:39.274Z,17.68
2018-06-12T00:07:39.208Z,17.75
2018-06-12T00:08:39.113Z,17.77
2018-06-12T00:09:39.039Z,17.81
2018-06-12T00:10:38.963Z,17.86
2018-06-12T00:11:38.887Z,17.79
2018-06-12T00:12:38.801Z,17.86
2018-06-12T00:13:38.724Z,17.77
2018-06-12T00:14:38.649Z,17.79
2018-06-12T00:15:38.575Z,17.77
2018-06-12T00:16:38.788Z,17.86
2018-06-12T00:17:38.413Z,17.90
2018-06-12T00:18:38.341Z,17.89
2018-06-12T00:19:38.262Z,17.90
2018-06-12T00:20:38.175Z,17.84
2018-06-12T00:21:38.100Z,17.86
2018-06-12T00:22:38.025Z,17.87
2018-06-12T00:23:37.954Z,17.87
2018-06-12T00:24:37.864Z,17.81
2018-06-12T00:25:37.789Z,17.87
2018-06-12T00:26:37.714Z,17.89
2018-06-12T00:27:37.627Z,17.89
2018-06-12T00:28:37.551Z,17.87
2018-06-12T00:29:37.476Z,17.86
2018-06-12T00:30:37.401Z,17.90
2018-06-12T00:31:37.315Z,17.84
2018-06-12T00:32:37.240Z,17.82
2018-06-12T00:33:37.166Z,17.82
2018-06-12T00:34:37.091Z,17.84
2018-06-12T00:35:37.004Z,17.81
2018-06-12T00:36:36.927Z,17.81
2018-06-12T00:37:36.855Z,17.72
2018-06-12T00:38:36.777Z,17.77
2018-06-12T00:39:36.692Z,17.77
2018-06-12T00:40:36.616Z,17.81
2018-06-12T00:41:36.541Z,17.72
2018-06-12T00:42:36.453Z,17.62
2018-06-12T00:43:36.378Z,17.62
2018-06-12T00:44:36.315Z,17.62
2018-06-12T00:45:36.228Z,17.71
2018-06-12T00:46:36.142Z,17.56
2018-06-12T00:47:36.078Z,17.54
2018-06-12T00:48:35.992Z,17.40
2018-06-12T00:49:35.917Z,17.34
2018-06-12T00:50:35.829Z,17.30
2018-06-12T00:51:36.053Z,17.26
2018-06-12T00:52:35.679Z,17.22
2018-06-12T00:53:35.616Z,17.23
2018-06-12T00:54:35.519Z,17.25
2018-06-12T00:55:35.442Z,17.19
2018-06-12T00:56:35.370Z,17.16
2018-06-12T00:57:35.284Z,17.14
2018-06-12T00:58:35.218Z,17.11
2018-06-12T00:59:35.135Z,17.07
2018-06-12T01:00:35.055Z,17.08
2018-06-12T01:01:34.979Z,16.97
2018-06-12T01:02:34.892Z,17.11
2018-06-12T01:03:34.818Z,16.97
2018-06-12T01:04:34.731Z,17.01
2018-06-12T01:05:34.656Z,17.00
2018-06-12T01:06:34.881Z,17.00
2018-06-12T01:07:34.505Z,16.89
2018-06-12T01:08:34.421Z,16.86
2018-06-12T01:09:34.344Z,16.83
2018-06-12T01:10:34.268Z,16.94
2018-06-12T01:11:34.182Z,16.83
2018-06-12T01:12:34.106Z,16.83
2018-06-12T01:13:34.030Z,16.79
2018-06-12T01:14:33.958Z,16.79
2018-06-12T01:15:33.870Z,16.79
2018-06-12T01:16:33.795Z,16.73
2018-06-12T01:17:33.719Z,16.86
2018-06-12T01:18:33.632Z,16.75
2018-06-12T01:19:33.607Z,16.81
2018-06-12T01:20:33.482Z,16.76
2018-06-12T01:21:33.407Z,16.83
2018-06-12T01:22:33.319Z,16.86
2018-06-12T01:23:33.245Z,16.79
2018-06-12T01:24:33.170Z,16.73
2018-06-12T01:25:33.097Z,16.71
2018-06-12T01:26:33.007Z,16.75
2018-06-12T01:27:32.934Z,16.79
2018-06-12T01:28:32.857Z,16.73
2018-06-12T01:29:32.774Z,16.68
2018-06-12T01:30:32.696Z,16.68
2018-06-12T01:31:32.621Z,16.58
2018-06-12T01:32:32.533Z,16.58
2018-06-12T01:33:32.458Z,16.61
2018-06-12T01:34:32.385Z,16.50
2018-06-12T01:35:32.296Z,16.50
2018-06-12T01:36:32.227Z,16.43
2018-06-12T01:37:32.147Z,16.46
2018-06-12T01:38:32.059Z,16.49
2018-06-12T01:39:31.992Z,16.52
2018-06-12T01:40:31.909Z,16.56
2018-06-12T01:41:31.852Z,16.45
2018-06-12T01:42:31.748Z,16.50
2018-06-12T01:43:31.678Z,16.49
2018-06-12T01:44:31.599Z,16.48
2018-06-12T01:45:31.510Z,16.46
2018-06-12T01:46:31.436Z,16.43
2018-06-12T01:47:31.360Z,16.50
2018-06-12T01:48:31.275Z,16.46
2018-06-12T01:49:31.199Z,16.42
2018-06-12T01:50:31.123Z,16.49
2018-06-12T01:51:31.337Z,16.45
2018-06-12T01:52:30.961Z,16.48
2018-06-12T01:53:30.886Z,16.31
2018-06-12T01:54:30.800Z,16.43
2018-06-12T01:55:30.724Z,16.48
2018-06-12T01:56:30.899Z,16.41
2018-06-12T01:57:30.562Z,16.35
2018-06-12T01:58:30.486Z,16.43
2018-06-12T01:59:30.412Z,16.34
2018-06-12T02:00:30.325Z,16.31
2018-06-12T02:01:30.250Z,16.38
2018-06-12T02:02:30.178Z,16.33
2018-06-12T02:03:30.088Z,16.33
2018-06-12T02:04:30.012Z,16.38
2018-06-12T02:05:29.950Z,16.38
2018-06-12T02:06:29.862Z,16.41
2018-06-12T02:07:29.780Z,16.34
2018-06-12T02:08:29.702Z,16.33
2018-06-12T02:09:29.626Z,16.31
2018-06-12T02:10:29.552Z,16.35
2018-06-12T02:11:29.463Z,16.35
2018-06-12T02:12:29.388Z,16.35
2018-06-12T02:13:29.302Z,16.39
2018-06-12T02:14:29.227Z,16.42
2018-06-12T02:15:29.152Z,16.31
2018-06-12T02:16:29.063Z,16.35
2018-06-12T02:17:28.989Z,16.49
2018-06-12T02:18:28.913Z,16.41
2018-06-12T02:19:28.829Z,16.31
2018-06-12T02:20:28.752Z,16.48
2018-06-12T02:21:28.677Z,16.45
2018-06-12T02:22:28.591Z,16.30
2018-06-12T02:23:28.514Z,16.43
2018-06-12T02:24:28.442Z,16.34
2018-06-12T02:25:28.353Z,16.39
2018-06-12T02:26:28.277Z,16.35
2018-06-12T02:27:28.203Z,16.38
2018-06-12T02:28:28.115Z,16.31
2018-06-12T02:29:28.041Z,16.28
2018-06-12T02:30:27.965Z,16.20
2018-06-12T02:31:27.879Z,16.38
2018-06-12T02:32:27.803Z,16.30
2018-06-12T02:33:27.728Z,16.24
2018-06-12T02:34:27.654Z,16.20
2018-06-12T02:35:27.565Z,16.21
2018-06-12T02:36:27.490Z,16.17
2018-06-12T02:37:27.404Z,16.20
2018-06-12T02:38:27.328Z,16.17
2018-06-12T02:39:27.258Z,16.09
2018-06-12T02:40:27.166Z,16.12
2018-06-12T02:41:27.091Z,16.12
2018-06-12T02:42:27.020Z,16.11
2018-06-12T02:43:26.929Z,16.05
2018-06-12T02:44:26.856Z,16.11
2018-06-12T02:45:26.785Z,16.08
2018-06-12T02:46:26.692Z,16.12
2018-06-12T02:47:26.617Z,16.01
2018-06-12T02:48:26.542Z,16.00
2018-06-12T02:49:26.456Z,16.02
2018-06-12T02:50:26.380Z,15.96
2018-06-12T02:51:26.305Z,16.04
2018-06-12T02:52:26.218Z,15.97
2018-06-12T02:53:26.143Z,16.00
2018-06-12T02:54:26.069Z,15.96
2018-06-12T02:55:25.981Z,16.04
2018-06-12T02:56:25.971Z,16.00
2018-06-12T02:57:25.831Z,15.93
2018-06-12T02:58:25.743Z,15.86
2018-06-12T02:59:25.669Z,15.93
2018-06-12T03:00:25.593Z,15.84
2018-06-12T03:01:25.519Z,15.84
2018-06-12T03:02:25.434Z,15.78
2018-06-12T03:03:25.362Z,15.80
2018-06-12T03:04:25.269Z,15.71
2018-06-12T03:05:25.194Z,15.80
2018-06-12T03:06:25.132Z,15.92
2018-06-12T03:07:25.032Z,15.93
2018-06-12T03:08:24.962Z,15.82
2018-06-12T03:09:24.882Z,15.86
2018-06-12T03:10:24.794Z,15.75
2018-06-12T03:11:24.983Z,15.74
2018-06-12T03:12:24.644Z,15.72
2018-06-12T03:13:24.562Z,15.71
2018-06-12T03:14:24.523Z,15.74
2018-06-12T03:15:24.408Z,15.74
2018-06-12T03:16:24.370Z,15.75
2018-06-12T03:17:24.245Z,15.74
2018-06-12T03:18:24.158Z,15.74
2018-06-12T03:19:24.088Z,15.84
2018-06-12T03:20:24.008Z,15.69
2018-06-12T03:21:24.221Z,15.68
2018-06-12T03:22:23.858Z,15.69
2018-06-12T03:23:23.836Z,15.72
2018-06-12T03:24:23.687Z,15.74
2018-06-12T03:25:23.609Z,15.74
2018-06-12T03:26:23.784Z,15.74
2018-06-12T03:27:23.449Z,15.71
2018-06-12T03:28:23.370Z,15.82
2018-06-12T03:29:23.297Z,15.74
2018-06-12T03:30:23.209Z,15.67
2018-06-12T03:31:23.135Z,15.72
2018-06-12T03:32:23.059Z,15.75
2018-06-12T03:33:22.971Z,15.72
2018-06-12T03:34:22.896Z,15.72
2018-06-12T03:35:22.822Z,15.86
2018-06-12T03:36:22.735Z,15.69
2018-06-12T03:37:22.664Z,15.76
2018-06-12T03:38:22.574Z,15.74
2018-06-12T03:39:22.498Z,15.72
2018-06-12T03:40:22.422Z,15.83
2018-06-12T03:41:22.347Z,15.80
2018-06-12T03:42:22.262Z,15.78
2018-06-12T03:43:22.185Z,15.83
2018-06-12T03:44:22.114Z,15.93
2018-06-12T03:45:22.023Z,15.83
2018-06-12T03:46:21.948Z,15.78
2018-06-12T03:47:21.861Z,15.78
2018-06-12T03:48:21.787Z,15.74
2018-06-12T03:49:21.712Z,15.76
2018-06-12T03:50:21.624Z,15.75
2018-06-12T03:51:21.548Z,15.83
2018-06-12T03:52:21.474Z,15.82
2018-06-12T03:53:21.386Z,15.75
2018-06-12T03:54:21.313Z,15.86
2018-06-12T03:55:21.237Z,15.90
2018-06-12T03:56:21.149Z,15.78
2018-06-12T03:57:21.085Z,15.72
2018-06-12T03:58:21.000Z,15.86
2018-06-12T03:59:20.914Z,15.80
2018-06-12T04:00:20.840Z,15.82
2018-06-12T04:01:21.064Z,15.76
2018-06-12T04:02:20.675Z,15.78
2018-06-12T04:03:20.622Z,15.83
2018-06-12T04:04:20.525Z,15.78
2018-06-12T04:05:20.440Z,15.68
2018-06-12T04:06:20.364Z,15.71
2018-06-12T04:07:20.288Z,15.75
2018-06-12T04:08:20.214Z,15.74
2018-06-12T04:09:20.139Z,15.76
2018-06-12T04:10:20.050Z,15.72
2018-06-12T04:11:19.964Z,15.78
2018-06-12T04:12:19.891Z,15.80
2018-06-12T04:13:19.803Z,15.84
2018-06-12T04:14:19.726Z,15.75
2018-06-12T04:15:19.651Z,15.69
2018-06-12T04:16:19.564Z,15.74
2018-06-12T04:17:19.489Z,15.71
2018-06-12T04:18:19.414Z,15.83
2018-06-12T04:19:19.327Z,15.76
2018-06-12T04:20:19.251Z,15.83
2018-06-12T04:21:19.181Z,15.94
2018-06-12T04:22:19.089Z,16.02
2018-06-12T04:23:19.015Z,16.12
2018-06-12T04:24:18.943Z,16.05
2018-06-12T04:25:18.851Z,16.15
2018-06-12T04:26:19.027Z,16.21
2018-06-12T04:27:18.702Z,16.15
2018-06-12T04:28:18.615Z,16.07
2018-06-12T04:29:18.541Z,16.12
2018-06-12T04:30:18.466Z,16.24
2018-06-12T04:31:18.379Z,16.21
2018-06-12T04:32:18.303Z,16.12
2018-06-12T04:33:18.240Z,16.11
2018-06-12T04:34:18.141Z,16.05
2018-06-12T04:35:18.066Z,16.20
2018-06-12T04:36:17.995Z,16.09
2018-06-12T04:37:17.903Z,16.11
2018-06-12T04:38:17.829Z,16.04
2018-06-12T04:39:17.753Z,16.12
2018-06-12T04:40:17.667Z,16.02
2018-06-12T04:41:17.842Z,16.02
2018-06-12T04:42:17.517Z,16.00
2018-06-12T04:43:17.459Z,15.92
2018-06-12T04:44:17.355Z,15.92
2018-06-12T04:45:17.279Z,15.92
2018-06-12T04:46:17.192Z,15.76
2018-06-12T04:47:17.119Z,15.90
2018-06-12T04:48:17.043Z,15.90
2018-06-12T04:49:16.956Z,15.93
2018-06-12T04:50:16.880Z,15.80
2018-06-12T04:51:16.805Z,15.71
2018-06-12T04:52:16.722Z,15.75
2018-06-12T04:53:16.644Z,15.71
2018-06-12T04:54:16.569Z,15.76
2018-06-12T04:55:16.494Z,15.92
2018-06-12T04:56:16.406Z,16.01
2018-06-12T04:57:16.331Z,16.02
2018-06-12T04:58:16.255Z,15.96
2018-06-12T04:59:16.169Z,16.09
2018-06-12T05:00:16.095Z,16.14
2018-06-12T05:01:16.270Z,15.97
2018-06-12T05:02:15.934Z,15.97
2018-06-12T05:03:15.856Z,15.96
2018-06-12T05:04:15.784Z,15.87
2018-06-12T05:05:15.695Z,15.97
2018-06-12T05:06:15.621Z,15.86
2018-06-12T05:07:15.545Z,15.97
2018-06-12T05:08:15.457Z,15.96
2018-06-12T05:09:15.382Z,15.75
2018-06-12T05:10:15.309Z,15.93
2018-06-12T05:11:15.221Z,15.89
2018-06-12T05:12:15.146Z,15.84
2018-06-12T05:13:15.076Z,15.90
2018-06-12T05:14:14.983Z,16.02
2018-06-12T05:15:14.908Z,16.11
2018-06-12T05:16:14.833Z,16.15
2018-06-12T05:17:14.746Z,16.05
2018-06-12T05:18:14.671Z,16.01
2018-06-12T05:19:14.596Z,16.02
2018-06-12T05:20:14.510Z,16.15
2018-06-12T05:21:14.433Z,16.07
2018-06-12T05:22:14.358Z,16.12
2018-06-12T05:23:14.284Z,16.20
2018-06-12T05:24:14.197Z,16.11
2018-06-12T05:25:14.122Z,16.23
2018-06-12T05:26:14.298Z,16.34
2018-06-12T05:27:13.973Z,16.21
2018-06-12T05:28:13.883Z,16.12
2018-06-12T05:29:13.812Z,16.27
2018-06-12T05:30:13.723Z,16.21
2018-06-12T05:31:13.649Z,16.23
2018-06-12T05:32:13.578Z,16.23
2018-06-12T05:33:13.497Z,16.39
2018-06-12T05:34:13.409Z,16.30
2018-06-12T05:35:13.335Z,16.35
2018-06-12T05:36:13.260Z,16.25
2018-06-12T05:37:13.173Z,16.11
2018-06-12T05:38:13.098Z,16.27
2018-06-12T05:39:13.022Z,16.39
2018-06-12T05:40:12.937Z,16.50
2018-06-12T05:41:13.110Z,16.48
2018-06-12T05:42:12.797Z,16.61
2018-06-12T05:43:12.710Z,16.66
2018-06-12T05:44:12.624Z,16.71
2018-06-12T05:45:12.550Z,16.56
2018-06-12T05:46:12.474Z,16.67
2018-06-12T05:47:12.403Z,16.71
2018-06-12T05:48:12.311Z,16.71
2018-06-12T05:49:12.237Z,16.81
2018-06-12T05:50:12.162Z,16.79
2018-06-12T05:51:12.074Z,16.86
2018-06-12T05:52:12.001Z,16.89
2018-06-12T05:53:11.925Z,16.94
2018-06-12T05:54:11.849Z,16.79
2018-06-12T05:55:11.763Z,16.82
2018-06-12T05:56:11.687Z,16.81
2018-06-12T05:57:11.612Z,16.83
2018-06-12T05:58:11.526Z,17.01
2018-06-12T05:59:11.450Z,16.91
2018-06-12T06:00:11.376Z,16.97
2018-06-12T06:01:11.314Z,16.91
2018-06-12T06:02:11.212Z,16.98
2018-06-12T06:03:11.140Z,16.88
2018-06-12T06:04:11.063Z,16.97
2018-06-12T06:05:10.988Z,16.97
2018-06-12T06:06:10.903Z,16.91
2018-06-12T06:07:10.826Z,16.86
2018-06-12T06:08:10.752Z,16.97
2018-06-12T06:09:10.664Z,17.01
2018-06-12T06:10:10.590Z,17.06
2018-06-12T06:11:10.516Z,17.08
2018-06-12T06:12:10.439Z,16.98
2018-06-12T06:13:10.353Z,17.01
2018-06-12T06:14:10.277Z,17.15
2018-06-12T06:15:10.204Z,17.23
2018-06-12T06:16:10.116Z,17.36
2018-06-12T06:17:10.056Z,17.46
2018-06-12T06:18:09.965Z,17.41
2018-06-12T06:19:09.890Z,17.54
2018-06-12T06:20:09.806Z,17.40
2018-06-12T06:21:09.979Z,17.38
2018-06-12T06:22:09.654Z,17.48
2018-06-12T06:23:09.579Z,17.44
2018-06-12T06:24:09.491Z,17.49
2018-06-12T06:25:09.416Z,17.26
2018-06-12T06:26:09.342Z,17.31
2018-06-12T06:27:09.280Z,17.52
2018-06-12T06:28:09.179Z,17.51
2018-06-12T06:29:09.106Z,17.46
2018-06-12T06:30:09.029Z,17.64
2018-06-12T06:31:08.954Z,17.84
2018-06-12T06:32:08.880Z,17.93
2018-06-12T06:33:08.791Z,17.92
2018-06-12T06:34:08.716Z,17.93
2018-06-12T06:35:08.644Z,17.93
2018-06-12T06:36:08.580Z,17.92
2018-06-12T06:37:08.480Z,17.96
2018-06-12T06:38:08.408Z,17.95
2018-06-12T06:39:08.333Z,17.64
2018-06-12T06:40:08.261Z,17.84
2018-06-12T06:41:08.180Z,17.84
2018-06-12T06:42:08.092Z,17.97
2018-06-12T06:43:08.020Z,17.93
2018-06-12T06:44:07.943Z,17.92
2018-06-12T06:45:07.882Z,17.95
2018-06-12T06:46:07.792Z,17.89
2018-06-12T06:47:07.717Z,18.11
2018-06-12T06:48:07.631Z,18.73
2018-06-12T06:49:07.556Z,18.63
2018-06-12T06:50:07.486Z,18.73
2018-06-12T06:51:07.461Z,19.21
2018-06-12T06:52:07.335Z,19.29
2018-06-12T06:53:07.256Z,19.62
2018-06-12T06:54:07.171Z,19.76
2018-06-12T06:55:07.093Z,19.83
2018-06-12T06:56:07.019Z,19.71
2018-06-12T06:57:06.944Z,19.46
2018-06-12T06:58:06.868Z,19.44
2018-06-12T06:59:06.806Z,19.61
2018-06-12T07:00:06.718Z,19.71
2018-06-12T07:01:06.896Z,19.48
2018-06-12T07:02:06.568Z,19.28
2018-06-12T07:03:06.482Z,19.22
2018-06-12T07:04:06.408Z,19.28
2018-06-12T07:05:06.332Z,19.41
2018-06-12T07:06:06.258Z,19.44
2018-06-12T07:07:06.183Z,19.58
2018-06-12T07:08:06.108Z,19.43
2018-06-12T07:09:06.078Z,19.18
2018-06-12T07:10:05.957Z,18.99
2018-06-12T07:11:05.871Z,19.04
2018-06-12T07:12:05.796Z,19.02
2018-06-12T07:13:05.720Z,18.76
2018-06-12T07:14:05.648Z,18.73
2018-06-12T07:15:05.570Z,18.58
2018-06-12T07:16:05.497Z,18.41
2018-06-12T07:17:05.420Z,18.44
2018-06-12T07:18:05.347Z,18.63
2018-06-12T07:19:05.270Z,19.06
2018-06-12T07:20:05.197Z,19.10
2018-06-12T07:21:05.123Z,19.25
2018-06-12T07:22:05.045Z,19.54
2018-06-12T07:23:04.958Z,19.63
2018-06-12T07:24:04.893Z,19.91
2018-06-12T07:25:04.809Z,19.77
2018-06-12T07:26:04.734Z,19.71
2018-06-12T07:27:04.661Z,19.86
2018-06-12T07:28:04.588Z,20.33
2018-06-12T07:29:04.509Z,20.50
2018-06-12T07:30:04.463Z,20.41
2018-06-12T07:31:04.359Z,20.21
2018-06-12T07:32:04.284Z,20.18
2018-06-12T07:33:04.210Z,19.69
2018-06-12T07:34:04.135Z,19.86
2018-06-12T07:35:04.048Z,20.39
2018-06-12T07:36:03.986Z,20.59
2018-06-12T07:37:03.898Z,20.52
2018-06-12T07:38:03.825Z,20.33
2018-06-12T07:39:03.749Z,20.33
2018-06-12T07:40:03.687Z,20.43
2018-06-12T07:41:03.598Z,20.14
2018-06-12T07:42:03.524Z,19.77
2018-06-12T07:43:03.448Z,19.55
2018-06-12T07:44:03.386Z,19.25
2018-06-12T07:45:03.299Z,18.92
2018-06-12T07:46:03.226Z,18.36
2018-06-12T07:47:03.149Z,18.55
2018-06-12T07:48:03.088Z,18.66
2018-06-12T07:49:02.999Z,18.91
2018-06-12T07:50:02.929Z,19.37
2018-06-12T07:51:02.850Z,19.36
2018-06-12T07:52:02.788Z,19.48
2018-06-12T07:53:02.700Z,19.66
2018-06-12T07:54:02.625Z,19.44
2018-06-12T07:55:02.578Z,20.42
2018-06-12T07:56:02.487Z,20.84
2018-06-12T07:57:02.401Z,21.17
2018-06-12T07:58:02.325Z,21.71
2018-06-12T07:59:02.250Z,22.27
2018-06-12T08:00:02.190Z,22.25
2018-06-12T08:01:02.135Z,21.29
2018-06-12T08:02:02.026Z,21.49
2018-06-12T08:03:01.951Z,21.58
2018-06-12T08:04:01.877Z,21.56
2018-06-12T08:05:01.802Z,21.24
2018-06-12T08:06:01.727Z,21.31
2018-06-12T08:07:01.686Z,20.76
2018-06-12T08:08:01.577Z,20.72
2018-06-12T08:09:01.501Z,20.31
2018-06-12T08:10:01.441Z,20.06
2018-06-12T08:11:01.353Z,20.13
2018-06-12T08:12:01.292Z,19.68
2018-06-12T08:13:01.223Z,19.63
2018-06-12T08:14:01.141Z,19.41
2018-06-12T08:15:01.067Z,19.39
2018-06-12T08:16:00.991Z,19.46
2018-06-12T08:17:00.919Z,19.46
2018-06-12T08:18:00.841Z,20.51
2018-06-12T08:19:00.767Z,21.17
2018-06-12T08:20:00.692Z,21.68
2018-06-12T08:21:00.881Z,21.35
2018-06-12T08:22:00.554Z,20.66
2018-06-12T08:23:00.479Z,20.72
2018-06-12T08:24:00.405Z,20.72
2018-06-12T08:25:00.329Z,21.03
2018-06-12T08:26:00.254Z,20.51
2018-06-12T08:27:00.179Z,20.61
2018-06-12T08:28:00.117Z,20.61
2018-06-12T08:29:00.046Z,20.41
2018-06-12T08:30:00.083Z,20.47
2018-06-12T08:30:59.894Z,20.33
2018-06-12T08:31:59.818Z,20.42
2018-06-12T08:32:59.743Z,20.59
2018-06-12T08:33:59.669Z,20.18
2018-06-12T08:34:59.605Z,20.05
2018-06-12T08:35:59.532Z,20.20
2018-06-12T08:36:59.455Z,19.96
2018-06-12T08:37:59.380Z,19.87
2018-06-12T08:38:59.305Z,19.77
2018-06-12T08:39:59.286Z,19.62
2018-06-12T08:40:59.215Z,19.54
2018-06-12T08:41:59.095Z,19.78
2018-06-12T08:42:59.020Z,19.84
2018-06-12T08:43:58.944Z,20.05
2018-06-12T08:44:58.872Z,20.11
2018-06-12T08:45:58.794Z,19.74
2018-06-12T08:46:58.722Z,19.56
2018-06-12T08:47:58.646Z,19.46
2018-06-12T08:48:58.574Z,19.32
2018-06-12T08:49:58.495Z,19.41
2018-06-12T08:50:58.431Z,19.44
2018-06-12T08:51:58.356Z,19.55
2018-06-12T08:52:58.281Z,19.65
2018-06-12T08:53:58.207Z,19.54
2018-06-12T08:54:58.145Z,19.65
2018-06-12T08:55:58.064Z,19.55
2018-06-12T08:56:57.982Z,19.41
2018-06-12T08:57:57.907Z,19.50
2018-06-12T08:58:57.847Z,19.55
2018-06-12T08:59:57.757Z,19.50
2018-06-12T09:00:57.683Z,19.74
2018-06-12T09:01:57.611Z,20.02
2018-06-12T09:02:57.536Z,20.03
2018-06-12T09:03:57.458Z,20.01
2018-06-12T09:04:57.390Z,20.16
2018-06-12T09:05:57.314Z,20.29
2018-06-12T09:06:57.235Z,20.20
2018-06-12T09:07:57.172Z,19.88
2018-06-12T09:08:57.096Z,19.68
2018-06-12T09:09:57.022Z,19.68
2018-06-12T09:10:56.948Z,19.54
2018-06-12T09:11:56.876Z,19.63
2018-06-12T09:12:56.797Z,19.44
2018-06-12T09:13:56.722Z,19.43
2018-06-12T09:14:56.647Z,19.14
2018-06-12T09:15:56.573Z,19.23
2018-06-12T09:16:56.498Z,19.41
2018-06-12T09:17:56.423Z,19.48
2018-06-12T09:18:56.349Z,19.56
2018-06-12T09:19:56.273Z,18.70
2018-06-12T09:20:56.199Z,18.88
2018-06-12T09:21:56.123Z,18.99
2018-06-12T09:22:56.050Z,18.87
2018-06-12T09:23:55.974Z,18.72
2018-06-12T09:24:55.899Z,19.02
2018-06-12T09:25:55.823Z,19.14
2018-06-12T09:26:55.748Z,19.08
2018-06-12T09:27:55.674Z,19.33
2018-06-12T09:28:55.598Z,19.33
2018-06-12T09:29:55.524Z,20.01
2018-06-12T09:30:55.449Z,20.92
2018-06-12T09:31:55.375Z,22.02
2018-06-12T09:32:55.299Z,22.90
2018-06-12T09:33:55.271Z,22.62
2018-06-12T09:34:55.161Z,22.35
2018-06-12T09:35:55.086Z,22.05
2018-06-12T09:36:55.017Z,21.35
2018-06-12T09:37:54.936Z,21.35
2018-06-12T09:38:54.861Z,21.38
2018-06-12T09:39:54.786Z,21.16
2018-06-12T09:40:54.725Z,20.92
2018-06-12T09:41:54.650Z,21.32
2018-06-12T09:42:54.574Z,20.84
2018-06-12T09:43:54.501Z,21.24
2018-06-12T09:44:54.426Z,21.44
2018-06-12T09:45:54.362Z,21.49
2018-06-12T09:46:54.290Z,21.50
2018-06-12T09:47:54.214Z,21.28
2018-06-12T09:48:54.137Z,21.01
2018-06-12T09:49:54.062Z,20.59
2018-06-12T09:50:54.001Z,20.82
2018-06-12T09:51:53.926Z,20.48
2018-06-12T09:52:53.856Z,20.54
2018-06-12T09:53:53.776Z,20.26
2018-06-12T09:54:53.703Z,20.41
2018-06-12T09:55:53.639Z,20.23
2018-06-12T09:56:53.577Z,20.48
2018-06-12T09:57:53.489Z,20.85
2018-06-12T09:58:53.413Z,21.34
2018-06-12T09:59:53.347Z,21.34
2018-06-12T10:00:53.300Z,21.19
2018-06-12T10:01:53.207Z,21.32
2018-06-12T10:02:53.127Z,21.53
2018-06-12T10:03:53.053Z,21.88
2018-06-12T10:04:52.979Z,22.91
2018-06-12T10:05:52.915Z,23.25
2018-06-12T10:06:52.845Z,23.39
2018-06-12T10:07:52.791Z,23.57
2018-06-12T10:08:52.690Z,23.78
2018-06-12T10:09:52.617Z,23.75
2018-06-12T10:10:52.553Z,23.39
2018-06-12T10:11:52.479Z,23.17
2018-06-12T10:12:52.405Z,22.82
2018-06-12T10:13:52.343Z,22.18
2018-06-12T10:14:52.282Z,21.69
2018-06-12T10:15:52.191Z,21.28
2018-06-12T10:16:52.129Z,21.25
2018-06-12T10:17:52.058Z,21.43
2018-06-12T10:18:51.992Z,21.42
2018-06-12T10:19:51.906Z,21.22
2018-06-12T10:20:51.842Z,20.97
2018-06-12T10:21:51.780Z,20.76
2018-06-12T10:22:51.692Z,20.70
2018-06-12T10:23:51.618Z,20.92
2018-06-12T10:24:51.556Z,20.69
2018-06-12T10:25:51.480Z,20.97
2018-06-12T10:26:51.406Z,21.27
2018-06-12T10:27:51.343Z,21.42
2018-06-12T10:28:51.281Z,21.72
2018-06-12T10:29:51.192Z,22.15
2018-06-12T10:30:51.122Z,22.05
2018-06-12T10:31:51.043Z,21.65
2018-06-12T10:32:50.981Z,21.64
2018-06-12T10:33:50.906Z,21.99
2018-06-12T10:34:50.832Z,21.92
2018-06-12T10:35:50.757Z,21.50
2018-06-12T10:36:50.693Z,21.34
2018-06-12T10:37:50.619Z,21.17
2018-06-12T10:38:50.544Z,21.50
2018-06-12T10:39:50.471Z,21.90
2018-06-12T10:40:50.394Z,22.39
2018-06-12T10:41:50.319Z,22.33
2018-06-12T10:42:50.257Z,22.36
2018-06-12T10:43:50.185Z,22.33
2018-06-12T10:44:50.108Z,21.46
2018-06-12T10:45:50.033Z,21.28
2018-06-12T10:46:49.970Z,21.59
2018-06-12T10:47:49.896Z,22.54
2018-06-12T10:48:49.819Z,23.40
2018-06-12T10:49:49.745Z,23.46
2018-06-12T10:50:49.683Z,23.87
2018-06-12T10:51:49.614Z,24.37
2018-06-12T10:52:49.535Z,24.55
2018-06-12T10:53:49.473Z,24.64
2018-06-12T10:54:49.396Z,25.25
2018-06-12T10:55:49.326Z,25.23
2018-06-12T10:56:49.260Z,25.57
2018-06-12T10:57:49.188Z,25.85
2018-06-12T10:58:49.123Z,25.65
2018-06-12T10:59:49.060Z,26.01
2018-06-12T11:00:48.985Z,25.58
2018-06-12T11:01:48.922Z,24.76
2018-06-12T11:02:48.860Z,24.47
2018-06-12T11:03:48.785Z,24.12
2018-06-12T11:04:48.722Z,23.83
2018-06-12T11:05:48.660Z,23.33
2018-06-12T11:06:48.587Z,22.95
2018-06-12T11:07:48.527Z,22.42
2018-06-12T11:08:48.460Z,22.54
2018-06-12T11:09:48.387Z,22.58
2018-06-12T11:10:48.360Z,22.46
2018-06-12T11:11:48.261Z,22.73
2018-06-12T11:12:48.187Z,22.06
2018-06-12T11:13:48.123Z,21.84
2018-06-12T11:14:48.064Z,21.72
2018-06-12T11:15:47.989Z,21.62
2018-06-12T11:16:47.911Z,21.71
2018-06-12T11:17:47.862Z,23.23
2018-06-12T11:18:47.773Z,24.08
2018-06-12T11:19:47.715Z,24.65
2018-06-12T11:20:47.691Z,24.93
2018-06-12T11:21:47.573Z,25.73
2018-06-12T11:22:47.498Z,26.55
2018-06-12T11:23:47.437Z,27.13
2018-06-12T11:24:47.362Z,27.02
2018-06-12T11:25:47.299Z,26.94
2018-06-12T11:26:47.227Z,27.54
2018-06-12T11:27:47.162Z,26.60
2018-06-12T11:28:47.100Z,26.58
2018-06-12T11:29:47.024Z,26.35
2018-06-12T11:30:46.962Z,26.18
2018-06-12T11:31:46.900Z,26.20
2018-06-12T11:32:46.825Z,26.88
2018-06-12T11:33:46.763Z,24.83
2018-06-12T11:34:46.700Z,24.67
2018-06-12T11:35:46.637Z,24.73
2018-06-12T11:36:46.564Z,23.91
2018-06-12T11:37:46.500Z,23.97
2018-06-12T11:38:46.439Z,23.36
2018-06-12T11:39:46.375Z,23.22
2018-06-12T11:40:46.301Z,23.31
2018-06-12T11:41:46.240Z,22.70
2018-06-12T11:42:46.179Z,22.76
2018-06-12T11:43:46.101Z,22.82
2018-06-12T11:44:46.038Z,23.09
2018-06-12T11:45:45.975Z,23.16
2018-06-12T11:46:45.901Z,23.85
2018-06-12T11:47:45.838Z,24.42
2018-06-12T11:48:45.764Z,24.62
2018-06-12T11:49:45.700Z,23.91
2018-06-12T11:50:45.639Z,23.63
2018-06-12T11:51:45.565Z,23.65
2018-06-12T11:52:45.502Z,23.50
2018-06-12T11:53:45.429Z,22.92
2018-06-12T11:54:45.365Z,22.70
2018-06-12T11:55:45.290Z,22.73
2018-06-12T11:56:45.227Z,23.00
2018-06-12T11:57:45.152Z,23.58
2018-06-12T11:58:45.091Z,24.30
2018-06-12T11:59:45.021Z,25.23
2018-06-12T12:00:45.201Z,26.20
2018-06-12T12:01:44.881Z,26.37
2018-06-12T12:02:44.816Z,25.82
2018-06-12T12:03:44.753Z,25.65
2018-06-12T12:04:44.678Z,25.20
2018-06-12T12:05:44.616Z,25.08
2018-06-12T12:06:44.541Z,24.95
2018-06-12T12:07:44.477Z,24.95
2018-06-12T12:08:44.404Z,24.39
2018-06-12T12:09:44.340Z,25.33
2018-06-12T12:10:44.278Z,25.83
2018-06-12T12:11:44.203Z,26.25
2018-06-12T12:12:44.141Z,25.77
2018-06-12T12:13:44.067Z,25.90
2018-06-12T12:14:44.004Z,25.40
2018-06-12T12:15:43.942Z,25.62
2018-06-12T12:16:43.867Z,25.10
2018-06-12T12:17:43.806Z,25.75
2018-06-12T12:18:43.741Z,26.30
2018-06-12T12:19:43.679Z,26.39
2018-06-12T12:20:43.619Z,26.57
2018-06-12T12:21:43.543Z,25.65
2018-06-12T12:22:43.479Z,25.72
2018-06-12T12:23:43.417Z,25.82
2018-06-12T12:24:43.342Z,26.15
2018-06-12T12:25:43.281Z,26.40
2018-06-12T12:26:43.218Z,26.18
2018-06-12T12:27:43.143Z,26.72
2018-06-12T12:28:43.161Z,25.99
2018-06-12T12:29:43.018Z,25.38
2018-06-12T12:30:42.943Z,24.32
2018-06-12T12:31:42.880Z,24.57
2018-06-12T12:32:42.819Z,24.24
2018-06-12T12:33:42.743Z,24.93
2018-06-12T12:34:42.681Z,25.35
2018-06-12T12:35:42.619Z,26.09
2018-06-12T12:36:42.555Z,26.06
2018-06-12T12:37:42.480Z,25.24
2018-06-12T12:38:42.419Z,24.65
2018-06-12T12:39:42.368Z,24.06
2018-06-12T12:40:42.280Z,24.62
2018-06-12T12:41:42.219Z,25.58
2018-06-12T12:42:42.158Z,26.60
2018-06-12T12:43:42.119Z,27.12
2018-06-12T12:44:42.020Z,25.69
2018-06-12T12:45:41.957Z,25.06
2018-06-12T12:46:41.881Z,26.25
2018-06-12T12:47:41.819Z,25.50
2018-06-12T12:48:41.758Z,25.99
2018-06-12T12:49:41.682Z,25.97
2018-06-12T12:50:41.620Z,26.07
2018-06-12T12:51:41.557Z,26.48